Time;durP1;ratioP1;P1;durP2;ratioP2;P2;SDS_P1;SDS_P2;PMS_P1;PMS_P2;Temp;Humidity;BMP_temperature;BMP_pressure;BME280_temperature;BME280_humidity;BME280_pressure;Samples;Min_cycle;Max_cycle;Signal;HPM_P1;HPM_P2
2023/12/30 00:00:25;;;;;;;2.90;2.28;;;;;;;9.36;66.65;100277.38;2538855;28;20113;-79
2023/12/30 00:01:39;;;;;;;2.97;2.33;;;;;;;9.36;66.67;100278.25;2534647;28;20041;-79
2023/12/30 00:02:53;;;;;;;3.08;2.75;;;;;;;9.39;66.57;100274.75;2542359;28;20101;-78
2023/12/30 00:04:07;;;;;;;2.58;2.38;;;;;;;9.39;66.80;100273.00;2542360;28;20045;-79
2023/12/30 00:05:23;;;;;;;2.47;2.28;;;;;;;9.39;67.16;100272.13;2541096;28;20136;-78
2023/12/30 00:06:37;;;;;;;3.45;2.67;;;;;;;9.34;67.70;100280.00;2542099;28;20064;-79
2023/12/30 00:07:51;;;;;;;4.47;2.85;;;;;;;9.30;67.90;100280.06;2542497;28;20080;-79
2023/12/30 00:09:05;;;;;;;3.75;2.22;;;;;;;9.21;68.48;100270.56;2541370;28;20136;-79
2023/12/30 00:10:20;;;;;;;6.07;2.80;;;;;;;9.15;69.02;100274.09;2541365;28;20109;-79
2023/12/30 00:11:34;;;;;;;3.25;1.88;;;;;;;9.06;69.37;100284.59;2541337;28;20037;-79
2023/12/30 00:12:48;;;;;;;3.88;2.65;;;;;;;9.00;69.92;100279.44;2541911;28;20104;-79
2023/12/30 00:14:02;;;;;;;3.00;2.20;;;;;;;8.93;70.31;100283.84;2540664;28;20049;-79
2023/12/30 00:15:16;;;;;;;3.95;2.70;;;;;;;8.87;70.56;100283.88;2540920;28;20109;-79
2023/12/30 00:16:30;;;;;;;3.28;2.40;;;;;;;8.83;70.93;100297.78;2539880;28;20049;-78
2023/12/30 00:17:45;;;;;;;2.80;2.30;;;;;;;8.80;71.07;100300.38;2539804;28;20125;-79
2023/12/30 00:18:58;;;;;;;3.60;2.35;;;;;;;8.76;71.59;100293.50;2540694;28;20098;-79
2023/12/30 00:20:13;;;;;;;4.32;2.10;;;;;;;8.72;71.68;100292.66;2540597;28;20049;-79
2023/12/30 00:21:26;;;;;;;3.58;2.65;;;;;;;8.69;72.19;100291.81;2538939;28;20048;-79
2023/12/30 00:22:40;;;;;;;3.08;2.45;;;;;;;8.62;72.37;100291.00;2531573;28;20105;-79
2023/12/30 00:23:54;;;;;;;7.35;2.30;;;;;;;8.54;72.63;100291.91;2532048;28;20041;-79
2023/12/30 00:25:10;;;;;;;2.15;1.95;;;;;;;8.47;72.89;100293.69;2531936;28;20511;-79
2023/12/30 00:26:26;;;;;;;6.28;2.45;;;;;;;8.40;73.26;100287.66;2531092;28;20041;-79
2023/12/30 00:27:40;;;;;;;5.53;3.42;;;;;;;8.35;73.37;100289.38;2532647;28;20038;-80
2023/12/30 00:28:54;;;;;;;2.80;2.33;;;;;;;8.31;73.78;100298.06;2532266;28;20038;-79
2023/12/30 00:30:09;;;;;;;4.68;2.60;;;;;;;8.27;74.29;100294.63;2538143;28;20096;-79
2023/12/30 00:31:23;;;;;;;3.03;2.72;;;;;;;8.24;74.17;100299.84;2540562;28;20045;-78
2023/12/30 00:32:39;;;;;;;3.35;2.72;;;;;;;8.22;74.45;100303.31;2538866;28;20052;-79
2023/12/30 00:33:54;;;;;;;3.15;2.30;;;;;;;8.18;74.64;100305.03;2537674;28;20041;-79
2023/12/30 00:35:08;;;;;;;7.70;2.95;;;;;;;8.15;74.94;100312.00;2531693;28;20045;-78
2023/12/30 00:36:22;;;;;;;4.28;3.65;;;;;;;8.12;74.95;100301.63;2539331;28;20045;-78
2023/12/30 00:37:36;;;;;;;4.80;2.70;;;;;;;8.09;75.30;100310.31;2534514;28;20059;-79
2023/12/30 00:38:50;;;;;;;5.15;2.72;;;;;;;8.07;75.54;100306.84;2534894;28;20076;-79
2023/12/30 00:40:05;;;;;;;3.58;3.28;;;;;;;8.05;75.65;100311.16;2530393;28;20049;-78
2023/12/30 00:41:19;;;;;;;4.47;3.10;;;;;;;8.03;75.91;100313.78;2529705;28;20053;-80
2023/12/30 00:42:35;;;;;;;5.13;3.30;;;;;;;8.02;76.08;100312.03;2539081;28;20574;-80
2023/12/30 00:43:48;;;;;;;3.75;3.15;;;;;;;8.01;75.93;100325.91;2539453;28;20045;-80
2023/12/30 00:45:04;;;;;;;5.95;3.88;;;;;;;7.99;76.33;100317.25;2539983;28;20041;-80
2023/12/30 00:46:19;;;;;;;6.97;5.25;;;;;;;7.99;76.41;100327.66;2531016;28;20049;-80
2023/12/30 00:47:33;;;;;;;4.72;3.95;;;;;;;7.97;76.53;100323.31;2538748;28;20041;-79
2023/12/30 00:48:47;;;;;;;3.83;2.85;;;;;;;7.95;76.79;100320.75;2538186;28;20052;-79
2023/12/30 00:50:01;;;;;;;5.75;3.33;;;;;;;7.95;76.92;100315.56;2538252;28;20045;-79
2023/12/30 00:51:14;;;;;;;7.65;3.38;;;;;;;7.93;76.88;100322.50;2538376;28;20402;-80
2023/12/30 00:52:29;;;;;;;5.65;4.00;;;;;;;7.91;77.12;100321.63;2538246;28;20125;-80
2023/12/30 00:53:42;;;;;;;11.75;6.88;;;;;;;7.90;77.42;100327.69;2538943;28;20046;-79
2023/12/30 00:54:57;;;;;;;20.63;11.02;;;;;;;7.88;77.57;100329.44;2538037;28;20049;-80
2023/12/30 00:56:10;;;;;;;20.10;10.23;;;;;;;7.85;77.62;100322.50;2537099;28;20430;-80
2023/12/30 00:57:25;;;;;;;4.15;2.45;;;;;;;7.83;77.85;100326.84;2537583;28;20061;-79
2023/12/30 00:58:39;;;;;;;2.97;2.28;;;;;;;7.82;78.04;100325.13;2537464;28;20053;-79
2023/12/30 00:59:54;;;;;;;4.72;2.28;;;;;;;7.81;78.27;100331.16;2538456;28;20391;-79
2023/12/30 01:01:07;;;;;;;4.18;3.45;;;;;;;7.79;78.17;100335.50;2538248;28;20060;-79
2023/12/30 01:02:22;;;;;;;3.92;3.33;;;;;;;7.80;78.30;100337.25;2529663;28;20418;-79
2023/12/30 01:03:35;;;;;;;6.72;3.13;;;;;;;7.78;78.71;100344.16;2528370;28;20050;-79
2023/12/30 01:04:49;;;;;;;6.32;3.17;;;;;;;7.76;78.86;100339.84;2528443;28;20050;-80
2023/12/30 01:06:03;;;;;;;8.27;3.50;;;;;;;7.75;78.90;100344.19;2533361;28;20037;-79
2023/12/30 01:07:17;;;;;;;5.38;3.58;;;;;;;7.74;78.94;100337.22;2538162;28;20075;-79
2023/12/30 01:08:31;;;;;;;6.80;3.40;;;;;;;7.74;79.39;100342.44;2537242;28;20041;-79
2023/12/30 01:09:45;;;;;;;4.07;2.83;;;;;;;7.73;79.17;100338.13;2537837;28;20097;-79
2023/12/30 01:10:59;;;;;;;4.53;2.40;;;;;;;7.72;79.34;100345.91;2537939;28;20482;-79
2023/12/30 01:12:13;;;;;;;15.15;2.33;;;;;;;7.70;79.64;100345.06;2537194;28;20046;-79
2023/12/30 01:13:26;;;;;;;2.45;2.25;;;;;;;7.68;79.79;100341.59;2536853;28;20041;-78
2023/12/30 01:14:42;;;;;;;2.28;1.98;;;;;;;7.66;80.15;100349.38;2537549;28;20049;-80
2023/12/30 01:15:55;;;;;;;3.15;2.53;;;;;;;7.66;80.37;100346.78;2538380;28;20490;-79
2023/12/30 01:17:10;;;;;;;7.38;2.47;;;;;;;7.64;80.20;100346.81;2538673;28;20048;-79
2023/12/30 01:18:24;;;;;;;5.03;2.60;;;;;;;7.65;80.37;100350.25;2538131;28;20502;-79
2023/12/30 01:19:39;;;;;;;8.95;2.63;;;;;;;7.63;80.70;100347.66;2539250;28;20076;-79
2023/12/30 01:20:53;;;;;;;3.20;2.25;;;;;;;7.63;80.61;100341.59;2538861;28;20046;-79
2023/12/30 01:22:07;;;;;;;4.07;2.85;;;;;;;7.62;80.75;100345.94;2538225;28;20065;-79
2023/12/30 01:23:21;;;;;;;3.47;2.85;;;;;;;7.64;80.92;100345.91;2536849;28;20049;-79
2023/12/30 01:24:35;;;;;;;7.28;2.47;;;;;;;7.64;81.17;100351.09;2528000;28;20060;-78
2023/12/30 01:25:48;;;;;;;4.00;2.70;;;;;;;7.64;81.37;100340.72;2532164;28;20049;-79
2023/12/30 01:27:03;;;;;;;3.33;2.70;;;;;;;7.64;81.24;100349.41;2537069;28;20421;-79
2023/12/30 01:28:16;;;;;;;4.63;2.25;;;;;;;7.64;81.37;100340.72;2539139;28;20418;-80
2023/12/30 01:29:31;;;;;;;6.03;3.10;;;;;;;7.64;81.38;100338.13;2538646;28;20049;-79
2023/12/30 01:30:46;;;;;;;4.57;3.53;;;;;;;7.64;81.59;100351.09;2540045;28;20521;-78
2023/12/30 01:32:00;;;;;;;6.50;2.95;;;;;;;7.65;81.52;100350.25;2540892;28;20045;-78
2023/12/30 01:33:13;;;;;;;5.72;3.20;;;;;;;7.63;81.55;100347.66;2541481;28;20050;-79
2023/12/30 01:34:28;;;;;;;3.78;2.55;;;;;;;7.63;81.69;100355.44;2531317;28;20042;-79
2023/12/30 01:35:41;;;;;;;4.22;3.28;;;;;;;7.64;81.97;100348.50;2530969;28;20065;-79
2023/12/30 01:36:56;;;;;;;3.28;2.38;;;;;;;7.64;81.99;100348.50;2530631;28;20113;-79
2023/12/30 01:38:09;;;;;;;5.22;2.47;;;;;;;7.63;81.93;100350.25;2537718;28;20045;-78
2023/12/30 01:39:24;;;;;;;4.75;3.30;;;;;;;7.64;82.02;100353.69;2543292;28;20568;-78
2023/12/30 01:40:37;;;;;;;4.47;2.80;;;;;;;7.63;82.18;100350.25;2542455;28;20052;-79
2023/12/30 01:41:51;;;;;;;5.60;3.22;;;;;;;7.63;82.21;100354.59;2542246;28;20101;-79
2023/12/30 01:43:06;;;;;;;7.80;3.17;;;;;;;7.63;82.30;100357.19;2542219;28;20106;-78
2023/12/30 01:44:21;;;;;;;3.53;2.90;;;;;;;7.61;82.59;100354.56;2534149;28;20054;-79
2023/12/30 01:45:35;;;;;;;6.13;2.92;;;;;;;7.63;82.37;100363.22;2540229;28;20045;-79
2023/12/30 01:46:51;;;;;;;4.38;3.40;;;;;;;7.63;82.46;100355.44;2532564;28;20122;-79
2023/12/30 01:48:05;;;;;;;4.47;2.90;;;;;;;7.62;82.52;100360.66;2531967;28;20046;-78
2023/12/30 01:49:20;;;;;;;5.82;3.33;;;;;;;7.63;82.53;100362.38;2532136;28;20053;-79
2023/12/30 01:50:33;;;;;;;9.95;3.08;;;;;;;7.61;82.70;100356.31;2532916;28;20046;-79
2023/12/30 01:51:48;;;;;;;3.58;2.88;;;;;;;7.61;83.04;100367.56;2532991;28;20068;-79
2023/12/30 01:53:02;;;;;;;4.68;2.92;;;;;;;7.62;82.82;100363.25;2533197;28;20053;-79
2023/12/30 01:54:18;;;;;;;4.85;3.22;;;;;;;7.62;83.01;100371.03;2540476;28;20109;-78
2023/12/30 01:55:31;;;;;;;5.68;3.47;;;;;;;7.61;83.05;100367.56;2542539;28;20045;-79
2023/12/30 01:56:45;;;;;;;7.35;3.88;;;;;;;7.61;83.05;100369.28;2542585;28;20052;-79
2023/12/30 01:57:59;;;;;;;5.55;3.92;;;;;;;7.61;83.16;100379.69;2536435;28;20046;-79
2023/12/30 01:59:15;;;;;;;4.55;3.67;;;;;;;7.61;82.96;100375.34;2532330;28;20140;-78
2023/12/30 02:00:30;;;;;;;7.90;3.35;;;;;;;7.62;83.01;100384.03;2532421;28;20064;-78
2023/12/30 02:01:45;;;;;;;4.60;3.95;;;;;;;7.62;83.27;100384.03;2531912;28;20060;-78
2023/12/30 02:03:00;;;;;;;5.78;3.50;;;;;;;7.63;83.40;100383.16;2531555;28;20153;-79
2023/12/30 02:04:15;;;;;;;4.40;3.67;;;;;;;7.62;83.23;100384.88;2530556;28;20042;-79
2023/12/30 02:05:28;;;;;;;7.10;4.32;;;;;;;7.62;83.44;100381.44;2531535;28;20054;-78
2023/12/30 02:06:43;;;;;;;24.88;12.18;;;;;;;7.63;83.32;100393.53;2540827;28;20055;-79
2023/12/30 02:07:57;;;;;;;23.02;15.23;;;;;;;7.64;83.18;100392.66;2540670;28;20041;-78
2023/12/30 02:09:12;;;;;;;7.22;5.63;;;;;;;7.64;83.27;100392.66;2542817;28;20425;-79
2023/12/30 02:10:26;;;;;;;6.80;3.85;;;;;;;7.64;83.35;100388.34;2542552;28;20071;-79
2023/12/30 02:11:40;;;;;;;7.40;4.28;;;;;;;7.65;83.63;100386.63;2542625;28;20052;-79
2023/12/30 02:12:54;;;;;;;4.78;4.00;;;;;;;7.65;83.55;100394.41;2542224;28;20056;-79
2023/12/30 02:14:22;;;;;;;5.85;3.95;;;;;;;7.63;83.48;100391.81;2534915;28;20097;-79
2023/12/30 02:15:36;;;;;;;5.78;4.53;;;;;;;7.63;84.05;100391.81;2532116;28;20046;-79
2023/12/30 02:16:51;;;;;;;4.68;4.10;;;;;;;7.63;83.54;100393.53;2531284;28;20042;-78
2023/12/30 02:18:06;;;;;;;6.70;5.38;;;;;;;7.63;83.55;100390.94;2536530;28;20046;-78
2023/12/30 02:19:20;;;;;;;5.65;4.03;;;;;;;7.62;83.80;100395.28;2541045;28;20046;-78
2023/12/30 02:20:34;;;;;;;5.35;4.38;;;;;;;7.61;84.00;100388.34;2540381;28;20056;-79
2023/12/30 02:21:48;;;;;;;5.00;4.25;;;;;;;7.64;83.70;100390.06;2535665;28;20045;-79
2023/12/30 02:23:03;;;;;;;5.60;4.85;;;;;;;7.62;83.85;100392.69;2530089;28;20562;-79
2023/12/30 02:24:19;;;;;;;6.22;4.45;;;;;;;7.62;83.94;100384.88;2531505;28;20088;-78
2023/12/30 02:25:33;;;;;;;5.22;3.95;;;;;;;7.62;84.04;100391.81;2531630;28;20042;-79
2023/12/30 02:26:47;;;;;;;4.88;4.38;;;;;;;7.64;83.94;100384.88;2531628;28;20044;-78
2023/12/30 02:28:00;;;;;;;9.38;5.13;;;;;;;7.63;83.90;100390.94;2532047;28;20046;-79
2023/12/30 02:29:15;;;;;;;6.47;4.70;;;;;;;7.63;84.19;100391.81;2531199;28;20109;-78
2023/12/30 02:30:28;;;;;;;5.97;3.88;;;;;;;7.65;83.97;100394.41;2537975;28;20064;-78
2023/12/30 02:31:47;;;;;;;4.78;3.90;;;;;;;7.66;84.17;100393.53;2539243;28;20072;-79
2023/12/30 02:33:00;;;;;;;6.13;4.50;;;;;;;7.66;84.01;100396.13;2541606;28;20045;-79
2023/12/30 02:34:15;;;;;;;5.15;3.95;;;;;;;7.67;83.98;100391.78;2539071;28;20063;-79
2023/12/30 02:35:28;;;;;;;5.40;4.60;;;;;;;7.67;83.94;100387.50;2533255;28;20084;-79
2023/12/30 02:36:43;;;;;;;8.57;3.72;;;;;;;7.66;83.90;100396.13;2542130;28;20057;-79
2023/12/30 02:37:56;;;;;;;5.20;3.83;;;;;;;7.65;83.88;100391.81;2540824;28;20041;-79
2023/12/30 02:39:12;;;;;;;4.57;3.47;;;;;;;7.63;83.94;100391.81;2543242;28;20053;-79
2023/12/30 02:40:26;;;;;;;5.28;3.50;;;;;;;7.61;83.92;100390.06;2539841;28;20506;-79
2023/12/30 02:41:41;;;;;;;7.60;4.55;;;;;;;7.62;83.86;100399.63;2533761;28;20110;-79
2023/12/30 02:42:54;;;;;;;8.63;4.97;;;;;;;7.60;83.90;100398.75;2541998;28;20064;-78
2023/12/30 02:44:09;;;;;;;5.50;4.35;;;;;;;7.58;83.77;100396.13;2542724;28;20053;-79
2023/12/30 02:45:22;;;;;;;10.50;5.82;;;;;;;7.58;83.90;100408.25;2540525;28;20059;-79
2023/12/30 02:46:36;;;;;;;6.03;5.20;;;;;;;7.57;83.73;100411.75;2541361;28;20128;-79
2023/12/30 02:47:50;;;;;;;8.05;3.63;;;;;;;7.55;83.81;100406.53;2542942;28;20053;-79
2023/12/30 02:49:05;;;;;;;10.50;3.95;;;;;;;7.55;83.90;100413.47;2540739;28;20055;-79
2023/12/30 02:50:18;;;;;;;9.60;5.68;;;;;;;7.54;83.95;100401.34;2534031;28;20658;-79
2023/12/30 02:51:33;;;;;;;6.63;5.68;;;;;;;7.52;83.88;100410.88;2534535;28;20095;-79
2023/12/30 02:52:46;;;;;;;5.05;4.25;;;;;;;7.51;84.06;100414.31;2534288;28;20041;-79
2023/12/30 02:54:01;;;;;;;7.55;4.75;;;;;;;7.49;83.92;100409.13;2534185;28;20518;-79
2023/12/30 02:55:15;;;;;;;5.75;4.43;;;;;;;7.49;84.14;100400.50;2534084;28;20053;-79
2023/12/30 02:56:30;;;;;;;5.88;4.68;;;;;;;7.50;84.05;100407.41;2534481;28;20049;-79
2023/12/30 02:57:43;;;;;;;5.53;4.55;;;;;;;7.50;83.94;100402.22;2533911;28;20045;-79
2023/12/30 02:58:58;;;;;;;10.45;5.25;;;;;;;7.49;84.10;100406.53;2534565;28;20097;-78
2023/12/30 03:00:13;;;;;;;11.13;5.20;;;;;;;7.51;84.14;100403.94;2533928;28;20053;-79
2023/12/30 03:01:28;;;;;;;9.50;4.63;;;;;;;7.51;84.17;100407.41;2534690;28;20053;-79
2023/12/30 03:02:42;;;;;;;6.40;4.47;;;;;;;7.52;84.02;100413.47;2539181;28;20045;-78
2023/12/30 03:03:57;;;;;;;7.05;4.80;;;;;;;7.50;84.00;100408.25;2534209;28;20049;-79
2023/12/30 03:05:11;;;;;;;8.05;4.45;;;;;;;7.49;84.04;100398.75;2534148;28;20045;-79
2023/12/30 03:06:26;;;;;;;6.03;4.15;;;;;;;7.50;84.12;100410.00;2515933;28;20561;-79
2023/12/30 03:07:39;;;;;;;4.22;3.83;;;;;;;7.48;83.96;100406.53;2524515;28;20053;-78
2023/12/30 03:08:54;;;;;;;5.53;3.80;;;;;;;7.47;84.17;100397.88;2523902;28;20046;-79
2023/12/30 03:10:09;;;;;;;23.88;5.45;;;;;;;7.49;84.01;100413.47;2523582;28;20037;-79
2023/12/30 03:11:25;;;;;;;4.63;3.70;;;;;;;7.48;83.99;100420.38;2523594;28;20058;-78
2023/12/30 03:12:39;;;;;;;6.10;3.45;;;;;;;7.48;83.81;100409.97;2524298;28;20454;-79
2023/12/30 03:13:53;;;;;;;6.80;4.38;;;;;;;7.48;83.91;100411.72;2528131;28;20045;-78
2023/12/30 03:15:08;;;;;;;6.65;4.78;;;;;;;7.48;84.10;100411.72;2534169;28;20045;-78
2023/12/30 03:16:22;;;;;;;5.18;4.22;;;;;;;7.47;83.81;100410.88;2533651;28;20053;-79
2023/12/30 03:17:36;;;;;;;4.68;3.90;;;;;;;7.48;83.95;100411.72;2534046;28;20426;-79
2023/12/30 03:18:50;;;;;;;3.58;3.20;;;;;;;7.49;83.90;100408.28;2533647;28;20045;-79
2023/12/30 03:20:09;;;;;;;7.35;4.32;;;;;;;7.49;83.89;100405.69;2533806;28;20046;-78
2023/12/30 03:21:24;;;;;;;6.22;3.35;;;;;;;7.50;84.07;100415.19;2533403;28;20133;-79
2023/12/30 03:22:38;;;;;;;5.97;4.70;;;;;;;7.49;84.08;100409.13;2534002;28;20081;-79
2023/12/30 03:23:52;;;;;;;5.00;3.75;;;;;;;7.49;83.95;100403.94;2533775;28;20049;-79
2023/12/30 03:25:06;;;;;;;8.80;4.88;;;;;;;7.50;83.73;100405.66;2534168;28;20068;-79
2023/12/30 03:26:21;;;;;;;9.25;3.50;;;;;;;7.50;84.07;100403.06;2532948;28;20073;-78
2023/12/30 03:27:36;;;;;;;9.48;4.50;;;;;;;7.51;83.77;100411.72;2533944;28;20049;-79
2023/12/30 03:28:50;;;;;;;5.47;3.58;;;;;;;7.51;83.88;100411.72;2533870;28;20052;-78
2023/12/30 03:30:05;;;;;;;4.28;3.53;;;;;;;7.52;83.64;100405.69;2533399;28;20041;-78
2023/12/30 03:31:23;;;;;;;8.48;4.63;;;;;;;7.53;83.70;100410.00;2533381;28;20483;-80
2023/12/30 03:32:36;;;;;;;6.32;4.30;;;;;;;7.52;83.75;100405.69;2533845;28;20041;-78
2023/12/30 03:33:51;;;;;;;4.35;3.90;;;;;;;7.53;83.48;100410.84;2533562;28;20046;-79
2023/12/30 03:35:06;;;;;;;4.68;3.83;;;;;;;7.54;83.69;100411.75;2533805;28;20045;-79
2023/12/30 03:36:21;;;;;;;5.72;4.30;;;;;;;7.56;83.61;100409.97;2533831;28;20414;-79
2023/12/30 03:37:34;;;;;;;5.53;4.15;;;;;;;7.56;83.82;100399.59;2532907;28;20064;-79
2023/12/30 03:38:49;;;;;;;7.82;3.70;;;;;;;7.56;83.73;100397.91;2533564;28;20052;-79
2023/12/30 03:40:03;;;;;;;6.78;3.53;;;;;;;7.56;83.34;100397.91;2533661;28;20498;-79
2023/12/30 03:41:18;;;;;;;4.20;3.13;;;;;;;7.57;83.49;100397.00;2533767;28;20479;-80
2023/12/30 03:42:32;;;;;;;4.72;4.20;;;;;;;7.57;83.62;100396.16;2533387;28;20537;-79
2023/12/30 03:43:48;;;;;;;5.47;3.72;;;;;;;7.58;83.69;100398.72;2533869;28;20064;-79
2023/12/30 03:45:02;;;;;;;5.18;3.67;;;;;;;7.59;83.44;100409.97;2533625;28;20049;-79
2023/12/30 03:46:17;;;;;;;6.75;3.85;;;;;;;7.59;83.41;100399.59;2533044;28;20057;-79
2023/12/30 03:47:30;;;;;;;3.65;3.33;;;;;;;7.60;83.37;100401.34;2534066;28;20110;-79
2023/12/30 03:48:44;;;;;;;6.68;3.83;;;;;;;7.59;83.46;100400.47;2534535;28;20476;-80
2023/12/30 03:49:58;;;;;;;4.07;3.13;;;;;;;7.58;83.30;100403.94;2533543;28;20056;-79
2023/12/30 03:51:12;;;;;;;4.15;3.40;;;;;;;7.58;83.25;100397.88;2533949;28;20057;-79
2023/12/30 03:52:26;;;;;;;5.60;3.75;;;;;;;7.60;83.26;100398.75;2533818;28;20052;-78
2023/12/30 03:53:40;;;;;;;7.72;3.92;;;;;;;7.61;83.35;100403.06;2533726;28;20442;-79
2023/12/30 03:54:55;;;;;;;3.75;3.20;;;;;;;7.61;83.19;100397.88;2533503;28;20048;-79
2023/12/30 03:56:11;;;;;;;5.63;4.00;;;;;;;7.61;83.20;100396.13;2534312;28;20041;-79
2023/12/30 03:57:25;;;;;;;8.48;3.78;;;;;;;7.62;83.00;100403.06;2532861;28;20061;-79
2023/12/30 03:58:39;;;;;;;3.60;3.10;;;;;;;7.62;83.12;100395.28;2533389;28;20038;-79
2023/12/30 03:59:54;;;;;;;6.13;3.58;;;;;;;7.63;83.03;100396.13;2533933;28;20049;-79
2023/12/30 04:01:08;;;;;;;4.00;3.70;;;;;;;7.63;82.90;100393.53;2532690;28;20045;-79
2023/12/30 04:02:22;;;;;;;5.95;3.92;;;;;;;7.64;82.89;100395.25;2533875;28;20050;-78
2023/12/30 04:03:36;;;;;;;3.67;2.83;;;;;;;7.63;82.90;100386.59;2533956;28;20049;-79
2023/12/30 04:04:50;;;;;;;6.93;3.35;;;;;;;7.64;82.83;100390.06;2534003;28;20048;-78
2023/12/30 04:06:04;;;;;;;5.68;4.30;;;;;;;7.67;82.89;100389.19;2533039;28;20049;-79
2023/12/30 04:07:18;;;;;;;8.05;3.13;;;;;;;7.67;82.73;100394.38;2533413;28;20049;-78
2023/12/30 04:08:32;;;;;;;5.70;3.20;;;;;;;7.65;82.78;100395.28;2533665;28;20057;-78
2023/12/30 04:09:45;;;;;;;4.85;3.13;;;;;;;7.68;82.95;100384.00;2533596;28;20498;-79
2023/12/30 04:11:00;;;;;;;3.92;2.55;;;;;;;7.68;82.71;100381.41;2533608;28;20046;-79
2023/12/30 04:12:13;;;;;;;4.88;3.00;;;;;;;7.68;82.80;100394.41;2534126;28;20053;-79
2023/12/30 04:13:28;;;;;;;3.03;2.80;;;;;;;7.69;82.82;100390.06;2533832;28;20520;-79
2023/12/30 04:14:42;;;;;;;4.25;2.47;;;;;;;7.69;82.54;100395.25;2534688;28;20045;-79
2023/12/30 04:15:57;;;;;;;3.35;3.05;;;;;;;7.68;82.74;100391.81;2534198;28;20050;-79
2023/12/30 04:17:11;;;;;;;3.55;3.25;;;;;;;7.68;82.55;100389.22;2534963;28;20411;-79
2023/12/30 04:18:25;;;;;;;4.68;2.80;;;;;;;7.70;82.57;100395.28;2524812;28;20050;-79
2023/12/30 04:19:39;;;;;;;3.45;2.92;;;;;;;7.70;82.40;100384.03;2525252;28;20050;-79
2023/12/30 04:20:53;;;;;;;3.72;3.25;;;;;;;7.70;82.35;100386.63;2525925;28;20046;-79
2023/12/30 04:22:07;;;;;;;3.47;3.17;;;;;;;7.71;82.50;100383.16;2525463;28;20050;-78
2023/12/30 04:23:21;;;;;;;5.13;3.13;;;;;;;7.71;82.40;100386.59;2525996;28;20133;-77
2023/12/30 04:24:35;;;;;;;3.58;2.85;;;;;;;7.73;82.04;100395.25;2525880;28;20057;-79
2023/12/30 04:25:49;;;;;;;5.03;2.75;;;;;;;7.73;82.10;100397.84;2524790;28;20050;-79
2023/12/30 04:27:03;;;;;;;4.70;2.38;;;;;;;7.74;82.11;100399.56;2524410;28;20054;-78
2023/12/30 04:28:17;;;;;;;4.18;2.78;;;;;;;7.74;82.02;100394.38;2524874;28;20054;-80
2023/12/30 04:29:30;;;;;;;5.25;2.78;;;;;;;7.73;82.14;100387.47;2523639;28;20049;-79
2023/12/30 04:30:45;;;;;;;4.03;2.53;;;;;;;7.72;82.04;100379.66;2524063;28;20046;-79
2023/12/30 04:32:00;;;;;;;4.43;2.63;;;;;;;7.71;81.71;100383.16;2523255;28;20049;-78
2023/12/30 04:33:14;;;;;;;5.30;3.00;;;;;;;7.68;81.99;100378.81;2523907;28;20069;-78
2023/12/30 04:34:27;;;;;;;5.72;3.17;;;;;;;7.66;81.72;100388.34;2522918;28;20396;-78
2023/12/30 04:35:42;;;;;;;2.80;2.50;;;;;;;7.64;81.81;100390.06;2523928;28;20046;-77
2023/12/30 04:36:56;;;;;;;5.20;2.65;;;;;;;7.63;81.93;100404.78;2524726;28;20049;-77
2023/12/30 04:38:09;;;;;;;2.92;2.53;;;;;;;7.63;81.97;100401.34;2523743;28;20042;-78
2023/12/30 04:39:24;;;;;;;6.10;3.63;;;;;;;7.64;82.09;100398.75;2523461;28;20046;-78
2023/12/30 04:40:37;;;;;;;4.05;2.92;;;;;;;7.65;82.17;100404.81;2523685;28;20050;-78
2023/12/30 04:41:52;;;;;;;5.00;2.90;;;;;;;7.68;82.15;100409.13;2522558;28;20042;-77
2023/12/30 04:43:05;;;;;;;3.75;2.45;;;;;;;7.68;82.11;100410.00;2523819;28;20052;-77
2023/12/30 04:44:20;;;;;;;2.60;2.40;;;;;;;7.70;82.13;100407.41;2523605;28;20056;-78
2023/12/30 04:45:33;;;;;;;3.95;2.90;;;;;;;7.71;82.16;100409.97;2525474;28;20049;-77
2023/12/30 04:46:47;;;;;;;4.40;2.22;;;;;;;7.72;82.21;100411.72;2534829;28;20049;-78
2023/12/30 04:48:03;;;;;;;4.30;2.53;;;;;;;7.73;82.02;100410.00;2533785;28;20041;-78
2023/12/30 04:49:17;;;;;;;4.50;2.60;;;;;;;7.72;82.21;100414.31;2533033;28;20419;-78
2023/12/30 04:50:32;;;;;;;2.85;2.17;;;;;;;7.74;82.11;100409.13;2525031;28;20430;-78
2023/12/30 04:51:46;;;;;;;9.48;2.72;;;;;;;7.75;82.23;100410.88;2533897;28;20049;-77
2023/12/30 04:53:00;;;;;;;5.40;2.72;;;;;;;7.76;82.02;100413.44;2534056;28;20041;-77
2023/12/30 04:54:14;;;;;;;2.20;1.83;;;;;;;7.77;82.07;100415.19;2525546;28;20052;-78
2023/12/30 04:55:27;;;;;;;5.55;2.45;;;;;;;7.80;82.01;100412.59;2523694;28;20133;-77
2023/12/30 04:56:42;;;;;;;2.95;2.05;;;;;;;7.80;81.89;100409.13;2524097;28;20176;-78
2023/12/30 04:57:55;;;;;;;3.25;2.75;;;;;;;7.80;82.00;100402.19;2523491;28;20049;-77
2023/12/30 04:59:10;;;;;;;3.05;2.28;;;;;;;7.81;81.75;100401.31;2524151;28;20042;-78
2023/12/30 05:00:23;;;;;;;3.72;2.28;;;;;;;7.82;81.85;100405.66;2523987;28;20057;-78
2023/12/30 05:01:38;;;;;;;5.53;1.90;;;;;;;7.82;81.90;100410.84;2523624;28;20050;-78
2023/12/30 05:02:51;;;;;;;4.80;2.58;;;;;;;7.84;81.63;100411.69;2523983;28;20046;-79
2023/12/30 05:04:07;;;;;;;4.68;1.90;;;;;;;7.84;81.74;100414.28;2523997;28;20042;-78
2023/12/30 05:05:20;;;;;;;3.42;2.88;;;;;;;7.86;81.77;100420.34;2523373;28;20051;-78
2023/12/30 05:06:35;;;;;;;1.83;1.70;;;;;;;7.86;81.49;100422.97;2524369;28;20072;-78
2023/12/30 05:07:48;;;;;;;2.90;1.80;;;;;;;7.87;81.77;100421.22;2523698;28;20419;-78
2023/12/30 05:09:03;;;;;;;4.07;2.92;;;;;;;7.89;81.53;100416.88;2523510;28;20042;-76
2023/12/30 05:10:17;;;;;;;4.47;1.63;;;;;;;7.89;81.57;100418.63;2531536;28;20065;-78
2023/12/30 05:11:32;;;;;;;2.42;1.70;;;;;;;7.90;81.71;100410.84;2525883;28;20054;-78
2023/12/30 05:12:46;;;;;;;6.32;2.03;;;;;;;7.92;81.53;100413.41;2535823;28;20148;-78
2023/12/30 05:14:01;;;;;;;4.32;1.80;;;;;;;7.94;81.52;100419.50;2534975;28;20051;-78
2023/12/30 05:15:14;;;;;;;3.72;1.85;;;;;;;7.95;81.36;100423.81;2535282;28;20046;-78
2023/12/30 05:16:28;;;;;;;3.45;3.15;;;;;;;7.97;81.19;100430.72;2535501;28;20077;-78
2023/12/30 05:17:42;;;;;;;6.15;1.92;;;;;;;7.97;81.24;100422.94;2535455;28;20044;-77
2023/12/30 05:18:56;;;;;;;3.58;2.00;;;;;;;7.99;81.21;100434.19;2536838;28;20049;-78
2023/12/30 05:20:12;;;;;;;3.28;1.65;;;;;;;7.99;81.21;100423.81;2535686;28;20064;-77
2023/12/30 05:21:26;;;;;;;7.97;2.42;;;;;;;8.00;81.09;100424.66;2533983;28;20053;-78
2023/12/30 05:22:40;;;;;;;2.42;1.80;;;;;;;8.00;81.07;100425.56;2525499;28;20045;-77
2023/12/30 05:23:55;;;;;;;1.58;1.45;;;;;;;8.01;81.05;100421.22;2525467;28;20050;-80
2023/12/30 05:25:09;;;;;;;6.28;1.85;;;;;;;8.00;81.15;100433.34;2525667;28;20045;-78
2023/12/30 05:26:23;;;;;;;3.67;1.67;;;;;;;8.01;81.32;100432.47;2533573;28;20053;-77
2023/12/30 05:27:37;;;;;;;6.03;2.10;;;;;;;8.02;81.26;100444.59;2535437;28;20049;-77
2023/12/30 05:28:52;;;;;;;5.10;1.70;;;;;;;8.02;81.02;100431.59;2535165;28;20049;-77
2023/12/30 05:30:07;;;;;;;2.05;1.88;;;;;;;8.03;81.05;100422.94;2534163;28;20132;-77
2023/12/30 05:31:21;;;;;;;2.63;1.20;;;;;;;8.04;81.18;100427.25;2536182;28;20060;-78
2023/12/30 05:32:35;;;;;;;4.70;1.40;;;;;;;8.03;80.94;100422.94;2535916;28;20426;-78
2023/12/30 05:33:49;;;;;;;2.03;1.33;;;;;;;8.04;80.93;100434.19;2530670;28;20038;-77
2023/12/30 05:35:03;;;;;;;3.50;1.40;;;;;;;8.03;80.80;100430.75;2525724;28;20049;-75
2023/12/30 05:36:19;;;;;;;1.85;1.60;;;;;;;8.01;81.05;100432.47;2526113;28;20058;-78
2023/12/30 05:37:32;;;;;;;5.15;1.60;;;;;;;7.99;80.89;100434.19;2517173;28;20054;-78
2023/12/30 05:38:47;;;;;;;4.47;1.38;;;;;;;7.97;80.89;100422.94;2525816;28;20498;-78
2023/12/30 05:40:00;;;;;;;2.63;1.98;;;;;;;7.95;80.71;100423.81;2526034;28;20653;-77
2023/12/30 05:41:15;;;;;;;7.40;1.88;;;;;;;7.93;80.81;100425.56;2527204;28;20045;-78
2023/12/30 05:42:28;;;;;;;5.25;1.50;;;;;;;7.90;81.00;100413.44;2535975;28;20430;-80
2023/12/30 05:43:42;;;;;;;2.53;1.58;;;;;;;7.89;80.84;100423.81;2534896;28;20049;-79
2023/12/30 05:44:56;;;;;;;2.53;1.48;;;;;;;7.88;81.01;100427.31;2526370;28;20049;-78
2023/12/30 05:46:15;;;;;;;3.05;1.55;;;;;;;7.86;81.14;100425.56;2533164;28;20536;-79
2023/12/30 05:47:29;;;;;;;2.35;1.85;;;;;;;7.84;80.96;100427.28;2536186;28;20049;-79
2023/12/30 05:48:43;;;;;;;5.38;1.77;;;;;;;7.83;81.18;100427.31;2536141;28;20129;-80
2023/12/30 05:49:57;;;;;;;2.63;2.35;;;;;;;7.82;81.16;100433.34;2536828;28;20049;-77